首页
METAR-TAF:

METAR-TAF

机场 :

加爾維斯敦, 得克萨斯州, 美国

纬度: 29-16-13N, 经度: 094-51-51W, 海拔: 2米

当前天气观测

该预报发布于13分钟前的14:52 UTC
风速16节,风向西北
温度 11°C
湿度 66%
气压 1017 hPa
能見度: 16.1公里
阴天层高于2500英尺

METAR: KGLS 291452Z 32016KT 10SM OVC025 11/05 A3002 RMK AO2 SLP164 T01060050 51020

时间: 09:05 (15:05 UTC)

预报

该预报发布于3小时和21分钟前的11:44 UTC
预报有效从29日的 12点(UTC)到 30日的 12点(UTC)
风速15节,风向西北,有时为24节阵风
能見度: 10公里
多云层高于2800英尺
从 29日的 1500点(UTC)
风速14节,风向西北,有时为22节阵风
能見度: 10公里
多云层高于2500英尺
从 29日的 1800点(UTC)
风速12节,风向,有时为21节阵风
能見度: 10公里
少量云层高于3000英尺
从 29日的 2200点(UTC)
风速12节,风向
能見度: 10公里
天空无云
从 30日的 0600点(UTC)
风速11节,风向北转东北
能見度: 10公里
多云层高于2100英尺
从 30日的 0900点(UTC)
风速11节,风向北转东北
能見度: 10公里
多云层高于1800英尺

TAF: KGLS 291144Z 2912/3012 32015G24KT P6SM BKN028 FM291500 31014G22KT P6SM BKN025 FM291800 35012G21KT P6SM FEW030 FM292200 36012KT P6SM SKC FM300600 03011KT P6SM BKN021 FM300900 03011KT P6SM BKN018

超过4000个机场的气象观测和天气预报(METAR&TAF报告)。

可查询的气象台以黄色和红色小点在地图上表示。

将鼠标移到小点上方,可查看气象台名称。

然后点击查看天气观测和预报。

如需切换地图:点击带黑十字的绿色按钮放大地图;点击带横线的绿色按钮缩小地图;或者点击绿色箭头查看邻近地区的地图。


METAR-TAF: